Bf Esperanza — V2BR8 — position and weather

sailwx.info

Track history (hours):
 
Tides and Currents Weather Stations Pressure Air Temp Water Temp Dewpoint Dewpoint Depression Visibility Wind Speed Wind Dir Waves Ship Positions

Bf Esperanza

Last reported at 2017-Jan-19 05:33 UTC. Time now 2017-Jan-20 01:50 UTC.
Position N 41°15' E 002°12'.

Length 135 m; draft 7.2 m.

Type: Ship (hazmat cat A). MMSI: 304907000.

Date/timePositionNaut miles runAvg speedWind from/ knotsBaromVisibWave heightAir tempDewpointWater temp
2017-Jan-19 05:33N 41°15' E 002°12'17 8.7
2017-Jan-19 03:33N 41°05' E 001°53'1110.0
2017-Jan-19 02:29N 40°58' E 001°42'910.1
2017-Jan-19 01:33N 40°52' E 001°33'1110.8
2017-Jan-19 00:33N 40°48' E 001°19'9912.4
2017-Jan-18 16:33N 39°33' W 000°06'1211.8
2017-Jan-18 15:34N 39°27' W 000°19'0 0.3
2017-Jan-18 14:30N 39°27' W 000°19'0 0.0
2017-Jan-18 13:20N 39°27' W 000°19'0 0.0
2017-Jan-18 12:32N 39°27' W 000°19'0 0.0
2017-Jan-18 11:32N 39°27' W 000°19'0 0.0
2017-Jan-18 10:33N 39°27' W 000°19'0 0.0
2017-Jan-18 09:32N 39°27' W 000°19'0 0.0
2017-Jan-18 08:32N 39°27' W 000°19'0 0.0
2017-Jan-18 07:28N 39°27' W 000°19'0 0.0
2017-Jan-18 06:31N 39°27' W 000°19'0 0.0
2017-Jan-18 05:24N 39°27' W 000°19'0 0.0
2017-Jan-18 04:33N 39°27' W 000°19'4 0.4
2017-Jan-17 18:25N 39°23' W 000°17'7 7.7
2017-Jan-17 17:33N 39°28' W 000°11'6713.3
2017-Jan-17 12:31N 40°14' E 000°53'4013.2
2017-Jan-17 09:31N 40°48' E 001°21'1414.8
2017-Jan-17 08:33N 40°52' E 001°39'1515.0
2017-Jan-17 07:32N 40°57' E 001°58'1515.1
2017-Jan-17 06:33N 41°01' E 002°17'1914.3
2017-Jan-17 05:14N 41°08' E 002°40'710.6
2017-Jan-17 04:33N 41°11' E 002°49'14 0.5
2017-Jan-16 02:25N 41°15' E 002°31'1315.0
2017-Jan-16 01:33N 41°06' E 002°19'1514.9
2017-Jan-16 00:33N 40°55' E 002°05'1414.4
2017-Jan-15 23:33N 40°45' E 001°52'1514.6
2017-Jan-15 22:33N 40°34' E 001°39'1414.3
2017-Jan-15 21:34N 40°24' E 001°26'1413.9
2017-Jan-15 20:33N 40°11' E 001°17'1313.4
2017-Jan-15 19:34N 39°59' E 001°09'12913.9
2017-Jan-15 10:18N 38°04' W 000°05'1115.0
2017-Jan-15 09:33N 37°55' W 000°13'1414.3
2017-Jan-15 08:33N 37°43' W 000°23'1414.5
2017-Jan-15 07:33N 37°31' W 000°33'1414.4
2017-Jan-15 06:34N 37°22' W 000°47'1913.9
2017-Jan-15 05:10N 37°09' W 001°04'  
2017-Jan-10 17:33N 30°29' W 009°49'  
Track history (hours):
 
Tides and Currents Weather Stations Pressure Air Temp Water Temp Dewpoint Dewpoint Depression Visibility Wind Speed Wind Dir Waves Ship Positions

Bf Esperanza

Last reported at 2017-Jan-19 05:33 UTC. Time now 2017-Jan-20 01:50 UTC.
Position N 41°15' E 002°12'.

Length 135 m; draft 7.2 m.

Type: Ship (hazmat cat A). MMSI: 304907000.

Date/timePositionNaut miles runAvg speedWind from/ knotsBaromVisibWave heightAir tempDewpointWater temp
2017-Jan-19 05:33N 41°15' E 002°12'17 8.7
2017-Jan-19 03:33N 41°05' E 001°53'1110.0
2017-Jan-19 02:29N 40°58' E 001°42'910.1
2017-Jan-19 01:33N 40°52' E 001°33'1110.8
2017-Jan-19 00:33N 40°48' E 001°19'9912.4
2017-Jan-18 16:33N 39°33' W 000°06'1211.8
2017-Jan-18 15:34N 39°27' W 000°19'0 0.3
2017-Jan-18 14:30N 39°27' W 000°19'0 0.0
2017-Jan-18 13:20N 39°27' W 000°19'0 0.0
2017-Jan-18 12:32N 39°27' W 000°19'0 0.0
2017-Jan-18 11:32N 39°27' W 000°19'0 0.0
2017-Jan-18 10:33N 39°27' W 000°19'0 0.0
2017-Jan-18 09:32N 39°27' W 000°19'0 0.0
2017-Jan-18 08:32N 39°27' W 000°19'0 0.0
2017-Jan-18 07:28N 39°27' W 000°19'0 0.0
2017-Jan-18 06:31N 39°27' W 000°19'0 0.0
2017-Jan-18 05:24N 39°27' W 000°19'0 0.0
2017-Jan-18 04:33N 39°27' W 000°19'4 0.4
2017-Jan-17 18:25N 39°23' W 000°17'7 7.7
2017-Jan-17 17:33N 39°28' W 000°11'6713.3
2017-Jan-17 12:31N 40°14' E 000°53'4013.2
2017-Jan-17 09:31N 40°48' E 001°21'1414.8
2017-Jan-17 08:33N 40°52' E 001°39'1515.0
2017-Jan-17 07:32N 40°57' E 001°58'1515.1
2017-Jan-17 06:33N 41°01' E 002°17'1914.3
2017-Jan-17 05:14N 41°08' E 002°40'710.6
2017-Jan-17 04:33N 41°11' E 002°49'14 0.5
2017-Jan-16 02:25N 41°15' E 002°31'1315.0
2017-Jan-16 01:33N 41°06' E 002°19'1514.9
2017-Jan-16 00:33N 40°55' E 002°05'1414.4
2017-Jan-15 23:33N 40°45' E 001°52'1514.6
2017-Jan-15 22:33N 40°34' E 001°39'1414.3
2017-Jan-15 21:34N 40°24' E 001°26'1413.9
2017-Jan-15 20:33N 40°11' E 001°17'1313.4
2017-Jan-15 19:34N 39°59' E 001°09'12913.9
2017-Jan-15 10:18N 38°04' W 000°05'1115.0
2017-Jan-15 09:33N 37°55' W 000°13'1414.3
2017-Jan-15 08:33N 37°43' W 000°23'1414.5
2017-Jan-15 07:33N 37°31' W 000°33'1414.4
2017-Jan-15 06:34N 37°22' W 000°47'1913.9
2017-Jan-15 05:10N 37°09' W 001°04'  
2017-Jan-10 17:33N 30°29' W 009°49'  

Dump ship's entire track history